createdAt,value
2023-03-13T00:01:58.736Z,11.00
2023-03-13T00:04:25.624Z,11.40
2023-03-13T00:14:14.481Z,11.10
2023-03-13T00:16:41.422Z,10.90
2023-03-13T00:19:09.643Z,10.60
2023-03-13T00:21:41.461Z,11.30
2023-03-13T00:24:10.834Z,10.20
2023-03-13T00:34:04.078Z,9.00
2023-03-13T00:36:33.354Z,10.20
2023-03-13T00:39:03.666Z,10.20
2023-03-13T00:41:32.584Z,10.00
2023-03-13T00:46:30.020Z,10.10
2023-03-13T00:58:50.615Z,10.00
2023-03-13T01:01:23.792Z,8.50
2023-03-13T01:03:54.145Z,11.10
2023-03-13T01:06:24.164Z,9.90
2023-03-13T01:08:51.502Z,9.70
2023-03-13T01:11:21.236Z,9.80
2023-03-13T01:16:20.669Z,9.80
2023-03-13T01:18:53.358Z,8.70
2023-03-13T01:21:22.505Z,10.00
2023-03-13T01:23:51.074Z,8.90
2023-03-13T01:28:45.854Z,8.60
2023-03-13T01:33:40.385Z,10.50
2023-03-13T01:38:36.301Z,8.70
2023-03-13T01:41:04.286Z,10.90
2023-03-13T01:43:33.406Z,10.20
2023-03-13T01:46:13.675Z,10.10
2023-03-13T01:49:03.504Z,10.80
2023-03-13T01:51:35.173Z,10.30
2023-03-13T01:54:09.682Z,11.40
2023-03-13T01:57:06.264Z,10.40
2023-03-13T01:59:40.458Z,10.30
2023-03-13T02:02:09.023Z,10.30
2023-03-13T02:04:39.545Z,10.40
2023-03-13T02:07:12.553Z,10.60
2023-03-13T02:09:44.112Z,10.50
2023-03-13T02:12:14.907Z,11.50
2023-03-13T02:14:44.654Z,9.40
2023-03-13T02:17:12.793Z,10.20
2023-03-13T02:19:44.742Z,9.30
2023-03-13T02:22:36.480Z,9.60
2023-03-13T02:25:24.437Z,11.30
2023-03-13T02:28:19.315Z,10.70
2023-03-13T02:30:48.608Z,12.00
2023-03-13T02:33:16.852Z,10.80
2023-03-13T02:35:45.369Z,10.80
2023-03-13T02:38:20.120Z,10.90
2023-03-13T02:40:48.981Z,12.40
2023-03-13T02:43:24.966Z,12.20
2023-03-13T02:46:05.622Z,9.80
2023-03-13T02:48:46.506Z,10.90
2023-03-13T02:51:29.628Z,11.00
2023-03-13T02:54:01.622Z,11.10
2023-03-13T02:56:33.000Z,11.10
2023-03-13T02:59:00.582Z,10.60
2023-03-13T03:13:48.021Z,11.60
2023-03-13T03:16:19.688Z,12.70
2023-03-13T03:28:36.288Z,12.20
2023-03-13T03:31:11.032Z,11.70
2023-03-13T03:33:38.893Z,10.50
2023-03-13T03:36:13.807Z,11.80
2023-03-13T03:38:41.854Z,12.00
2023-03-13T03:41:11.392Z,12.00
2023-03-13T03:53:34.164Z,11.10
2023-03-13T03:56:01.965Z,11.10
2023-03-13T04:03:43.194Z,12.50
2023-03-13T04:13:38.467Z,12.50
2023-03-13T04:16:09.395Z,13.80
2023-03-13T04:21:05.770Z,12.50
2023-03-13T04:23:40.412Z,11.60
2023-03-13T04:28:35.295Z,11.50
2023-03-13T04:36:35.104Z,11.40
2023-03-13T04:50:43.453Z,14.00
2023-03-13T04:53:39.347Z,13.60
2023-03-13T05:07:47.224Z,11.70
2023-03-13T05:10:29.835Z,11.70
2023-03-13T05:18:52.834Z,12.40
2023-03-13T05:29:42.112Z,12.40
2023-03-13T05:32:09.025Z,14.20
2023-03-13T05:37:41.431Z,14.30
2023-03-13T05:43:04.099Z,13.00
2023-03-13T05:48:50.662Z,13.90
2023-03-13T05:54:17.224Z,13.70
2023-03-13T05:59:44.045Z,11.90
2023-03-13T06:02:46.571Z,13.80
2023-03-13T06:07:46.881Z,12.90
2023-03-13T06:28:03.710Z,12.20
2023-03-13T06:32:58.813Z,13.40
2023-03-13T06:37:54.141Z,13.40
2023-03-13T06:50:10.833Z,14.80
2023-03-13T06:55:14.557Z,14.50
2023-03-13T07:00:11.384Z,13.60
2023-03-13T07:10:00.806Z,13.20
2023-03-13T07:19:49.333Z,12.50
2023-03-13T07:24:43.700Z,12.80
2023-03-13T07:39:27.440Z,13.70
2023-03-13T07:49:17.145Z,11.90
2023-03-13T07:51:44.714Z,14.00
2023-03-13T07:59:06.947Z,14.30
2023-03-13T08:06:33.791Z,12.30
2023-03-13T08:09:01.265Z,12.40
2023-03-13T08:11:28.863Z,13.10
2023-03-13T08:13:57.184Z,13.20
2023-03-13T08:16:34.830Z,12.60
2023-03-13T08:19:05.043Z,12.80
2023-03-13T08:21:34.550Z,13.00
2023-03-13T08:24:05.839Z,11.90
2023-03-13T08:26:33.928Z,13.70
2023-03-13T08:29:04.896Z,12.70
2023-03-13T08:31:34.722Z,13.50
2023-03-13T08:36:37.307Z,13.00
2023-03-13T08:39:07.624Z,13.00
2023-03-13T08:41:36.793Z,13.00
2023-03-13T08:44:04.923Z,13.10
2023-03-13T08:46:34.950Z,12.90
2023-03-13T08:49:03.622Z,13.10
2023-03-13T08:53:58.141Z,12.80
2023-03-13T08:56:28.064Z,13.40
2023-03-13T08:58:57.193Z,14.50
2023-03-13T09:01:26.545Z,15.10
2023-03-13T09:03:53.489Z,15.00
2023-03-13T09:06:20.630Z,14.40
2023-03-13T09:08:47.946Z,13.60
2023-03-13T09:11:17.629Z,13.80
2023-03-13T09:13:47.288Z,13.90
2023-03-13T09:16:17.250Z,14.40
2023-03-13T09:18:44.849Z,15.20
2023-03-13T09:21:17.642Z,14.90
2023-03-13T09:23:44.440Z,14.10
2023-03-13T09:26:12.046Z,15.50
2023-03-13T09:31:11.719Z,15.70
2023-03-13T09:36:06.868Z,17.20
2023-03-13T09:38:34.209Z,15.50
2023-03-13T09:41:16.384Z,15.70
2023-03-13T09:43:55.308Z,16.50
2023-03-13T09:46:53.341Z,16.80
2023-03-13T09:49:26.307Z,17.20
2023-03-13T09:52:12.099Z,16.10
2023-03-13T09:54:48.222Z,17.50
2023-03-13T09:57:36.048Z,16.10
2023-03-13T10:00:12.742Z,16.20
2023-03-13T10:05:12.647Z,16.60
2023-03-13T10:10:17.984Z,17.00
2023-03-13T10:12:47.815Z,17.30
2023-03-13T10:15:32.213Z,17.20
2023-03-13T10:18:07.018Z,17.00
2023-03-13T10:20:35.471Z,17.30
2023-03-13T10:23:15.732Z,17.40
2023-03-13T10:25:42.661Z,17.20
2023-03-13T10:28:14.888Z,17.60
2023-03-13T10:30:48.030Z,15.90
2023-03-13T10:35:43.934Z,17.20
2023-03-13T10:38:14.347Z,17.40
2023-03-13T10:40:42.818Z,18.60
2023-03-13T10:43:22.601Z,17.20
2023-03-13T10:45:49.527Z,16.60
2023-03-13T10:48:24.370Z,15.80
2023-03-13T10:51:01.936Z,15.90
2023-03-13T10:56:14.239Z,16.10
2023-03-13T10:58:49.546Z,18.60
2023-03-13T11:01:25.648Z,17.80
2023-03-13T11:03:55.147Z,17.90
2023-03-13T11:06:33.941Z,17.20
2023-03-13T11:09:18.085Z,17.10
2023-03-13T11:11:50.765Z,18.70
2023-03-13T11:14:23.978Z,19.10
2023-03-13T11:17:29.137Z,17.50
2023-03-13T11:20:26.980Z,18.80
2023-03-13T11:23:05.603Z,19.30
2023-03-13T11:25:49.238Z,19.70
2023-03-13T11:28:24.641Z,20.00
2023-03-13T11:31:08.232Z,19.80
2023-03-13T11:34:05.836Z,19.80
2023-03-13T11:36:40.190Z,18.70
2023-03-13T11:39:19.119Z,18.70
2023-03-13T11:42:19.791Z,20.20
2023-03-13T11:45:10.730Z,19.90
2023-03-13T11:47:56.482Z,21.00
2023-03-13T11:50:41.354Z,21.60
2023-03-13T11:53:38.085Z,19.40
2023-03-13T11:56:17.821Z,18.50
2023-03-13T11:59:09.491Z,20.50
2023-03-13T12:01:41.322Z,18.80
2023-03-13T12:04:23.265Z,18.80
2023-03-13T12:07:07.513Z,20.10
2023-03-13T12:12:05.662Z,19.30
2023-03-13T12:14:56.469Z,18.20
2023-03-13T12:17:35.166Z,19.70
2023-03-13T12:20:09.289Z,20.10
2023-03-13T12:22:42.853Z,20.90
2023-03-13T12:25:23.659Z,22.20
2023-03-13T12:28:15.453Z,21.40
2023-03-13T12:31:00.571Z,20.80
2023-03-13T12:33:42.355Z,22.50
2023-03-13T12:36:29.329Z,21.40
2023-03-13T12:38:58.636Z,21.60
2023-03-13T12:41:35.402Z,22.30
2023-03-13T12:46:55.852Z,20.80
2023-03-13T12:49:34.924Z,21.20
2023-03-13T12:52:21.371Z,22.80
2023-03-13T12:55:25.716Z,22.20
2023-03-13T12:58:20.325Z,20.90
2023-03-13T13:00:50.165Z,21.30
2023-03-13T13:03:24.411Z,20.80
2023-03-13T13:06:05.552Z,22.10
2023-03-13T13:08:39.413Z,23.00
2023-03-13T13:11:37.398Z,23.50
2023-03-13T13:14:19.180Z,24.90
2023-03-13T13:17:00.756Z,25.50
2023-03-13T13:19:27.497Z,25.50
2023-03-13T13:22:39.445Z,23.90
2023-03-13T13:25:24.389Z,23.00
2023-03-13T13:32:50.940Z,21.10
2023-03-13T13:35:36.235Z,21.70
2023-03-13T13:38:18.132Z,21.80
2023-03-13T13:41:06.323Z,23.70
2023-03-13T13:43:38.208Z,23.20
2023-03-13T13:46:09.245Z,23.20
2023-03-13T13:48:42.933Z,23.40
2023-03-13T13:53:55.931Z,22.90
2023-03-13T13:56:29.079Z,23.90
2023-03-13T13:59:19.099Z,23.20
2023-03-13T14:01:47.720Z,23.00
2023-03-13T14:04:27.679Z,23.40
2023-03-13T14:06:59.205Z,23.30
2023-03-13T14:09:39.679Z,23.60
2023-03-13T14:12:25.128Z,24.50
2023-03-13T14:15:12.159Z,26.20
2023-03-13T14:17:53.876Z,24.70
2023-03-13T14:20:28.108Z,27.10
2023-03-13T14:23:00.748Z,27.00
2023-03-13T14:25:50.213Z,25.00
2023-03-13T14:28:23.856Z,26.50
2023-03-13T14:30:53.120Z,26.80
2023-03-13T14:33:20.149Z,27.70
2023-03-13T14:35:47.761Z,26.90
2023-03-13T14:38:25.881Z,26.20
2023-03-13T14:40:55.645Z,25.90
2023-03-13T14:43:36.432Z,26.00
2023-03-13T14:46:30.487Z,26.20
2023-03-13T14:49:05.067Z,26.70
2023-03-13T14:51:32.232Z,26.70
2023-03-13T14:54:03.068Z,26.10
2023-03-13T14:56:42.368Z,26.30
2023-03-13T14:59:26.514Z,26.40
2023-03-13T15:02:15.119Z,27.50
2023-03-13T15:05:01.827Z,25.80
2023-03-13T15:07:52.811Z,26.50
2023-03-13T15:10:36.833Z,26.60
2023-03-13T15:13:44.019Z,25.20
2023-03-13T15:16:22.427Z,25.10
2023-03-13T15:18:51.077Z,26.40
2023-03-13T15:21:27.040Z,24.90
2023-03-13T15:24:27.206Z,26.30
2023-03-13T15:26:54.020Z,24.80
2023-03-13T15:29:20.906Z,24.70
2023-03-13T15:31:47.908Z,26.40
2023-03-13T15:34:16.408Z,25.80
2023-03-13T15:36:43.377Z,23.60
2023-03-13T15:39:24.744Z,24.10
2023-03-13T15:41:51.560Z,24.80
2023-03-13T15:44:18.494Z,25.50
2023-03-13T15:46:46.157Z,26.10
2023-03-13T15:49:13.268Z,26.40
2023-03-13T15:51:40.201Z,25.90
2023-03-13T15:54:07.171Z,26.30
2023-03-13T15:56:37.317Z,24.70
2023-03-13T15:59:15.687Z,25.30
2023-03-13T16:01:45.017Z,25.40
2023-03-13T16:04:12.412Z,24.70
2023-03-13T16:06:39.427Z,26.10
2023-03-13T16:09:06.949Z,25.20
2023-03-13T16:11:34.189Z,23.90
2023-03-13T16:14:01.113Z,24.10
2023-03-13T16:16:31.244Z,24.90
2023-03-13T16:18:59.331Z,24.90
2023-03-13T16:21:30.667Z,24.40
2023-03-13T16:23:57.991Z,22.80
2023-03-13T16:26:27.379Z,24.50
2023-03-13T16:28:55.328Z,24.10
2023-03-13T16:31:25.735Z,25.40
2023-03-13T16:33:53.951Z,24.70
2023-03-13T16:36:24.063Z,24.30
2023-03-13T16:38:51.621Z,22.70
2023-03-13T16:41:22.116Z,21.30
2023-03-13T16:43:49.766Z,20.70
2023-03-13T16:46:22.010Z,22.30
2023-03-13T16:48:50.161Z,22.00
2023-03-13T16:51:23.054Z,19.50
2023-03-13T16:53:52.227Z,20.60
2023-03-13T16:56:37.654Z,20.10
2023-03-13T16:59:13.290Z,19.80
2023-03-13T17:06:37.689Z,17.90
2023-03-13T17:09:10.342Z,18.20
2023-03-13T17:14:04.484Z,17.30
2023-03-13T17:16:34.470Z,18.50
2023-03-13T17:19:02.464Z,17.00
2023-03-13T17:21:32.145Z,16.60
2023-03-13T17:26:33.282Z,16.20
2023-03-13T17:29:01.002Z,15.80
2023-03-13T17:31:28.749Z,16.80
2023-03-13T17:33:55.567Z,16.70
2023-03-13T17:36:24.566Z,14.40
2023-03-13T17:38:54.314Z,15.10
2023-03-13T17:41:23.882Z,16.30
2023-03-13T17:46:46.520Z,14.70
2023-03-13T17:49:17.935Z,14.70
2023-03-13T17:56:43.968Z,13.80
2023-03-13T17:59:13.740Z,14.40
2023-03-13T18:01:42.264Z,14.20
2023-03-13T18:06:40.124Z,14.00
2023-03-13T18:09:11.929Z,14.00
2023-03-13T18:16:47.388Z,12.70
2023-03-13T18:19:17.769Z,14.00
2023-03-13T18:21:46.346Z,13.80
2023-03-13T18:24:13.993Z,13.70
2023-03-13T18:26:42.234Z,13.70
2023-03-13T18:29:17.090Z,13.70
2023-03-13T18:41:36.166Z,13.50
2023-03-13T18:46:33.380Z,13.40
2023-03-13T18:49:01.132Z,13.40
2023-03-13T18:51:28.621Z,13.50
2023-03-13T18:56:31.070Z,13.40
2023-03-13T18:58:58.768Z,14.30
2023-03-13T19:01:28.228Z,13.20
2023-03-13T19:03:56.078Z,13.10
2023-03-13T19:06:28.742Z,13.00
2023-03-13T19:09:01.473Z,13.00
2023-03-13T19:11:31.338Z,12.90
2023-03-13T19:13:59.324Z,12.80
2023-03-13T19:16:38.596Z,12.70
2023-03-13T19:19:17.743Z,14.00
2023-03-13T19:26:52.024Z,12.70
2023-03-13T19:29:23.607Z,12.70
2023-03-13T19:36:48.239Z,12.50
2023-03-13T19:39:21.381Z,12.70
2023-03-13T19:41:48.471Z,13.40
2023-03-13T19:44:16.558Z,12.40
2023-03-13T19:49:14.349Z,12.50
2023-03-13T19:51:42.125Z,13.10
2023-03-13T19:54:12.806Z,12.40
2023-03-13T19:56:41.274Z,11.30
2023-03-13T19:59:20.051Z,12.30
2023-03-13T20:01:47.215Z,11.00
2023-03-13T20:04:14.418Z,12.30
2023-03-13T20:06:42.419Z,11.90
2023-03-13T20:09:12.196Z,12.00
2023-03-13T20:14:07.289Z,11.90
2023-03-13T20:16:35.387Z,13.30
2023-03-13T20:21:31.877Z,11.90
2023-03-13T20:23:59.344Z,13.00
2023-03-13T20:26:28.002Z,12.70
2023-03-13T20:28:55.937Z,11.40
2023-03-13T20:31:26.178Z,11.70
2023-03-13T20:36:21.070Z,10.60
2023-03-13T20:38:48.168Z,11.00
2023-03-13T20:43:52.480Z,10.00
2023-03-13T20:46:19.855Z,10.70
2023-03-13T20:48:46.776Z,10.80
2023-03-13T20:51:14.190Z,11.00
2023-03-13T20:53:42.105Z,11.60
2023-03-13T20:56:10.297Z,11.20
2023-03-13T20:58:38.225Z,10.70
2023-03-13T21:01:06.714Z,11.80
2023-03-13T21:03:35.590Z,11.20
2023-03-13T21:06:09.679Z,11.80
2023-03-13T21:08:38.640Z,11.80
2023-03-13T21:11:14.025Z,11.60
2023-03-13T21:16:08.555Z,11.90
2023-03-13T21:21:08.402Z,11.00
2023-03-13T21:23:36.068Z,10.70
2023-03-13T21:26:02.998Z,11.30
2023-03-13T21:28:30.264Z,11.50
2023-03-13T21:53:02.979Z,12.60
2023-03-13T21:55:29.911Z,12.90
2023-03-13T21:57:56.852Z,11.00
2023-03-13T22:02:51.071Z,11.60
2023-03-13T22:05:18.181Z,11.60
2023-03-13T22:15:07.880Z,12.00
2023-03-13T22:29:52.424Z,10.70
2023-03-13T22:37:15.225Z,11.50
2023-03-13T22:39:42.114Z,10.80
2023-03-13T22:44:36.323Z,10.90
2023-03-13T22:47:03.292Z,10.80
2023-03-13T22:54:26.317Z,10.90
2023-03-13T23:04:15.462Z,11.30
2023-03-13T23:06:42.356Z,11.50
2023-03-13T23:11:36.647Z,13.40
2023-03-13T23:16:31.054Z,13.50
2023-03-13T23:18:57.966Z,11.60
2023-03-13T23:23:53.853Z,14.70
2023-03-13T23:28:48.081Z,13.40
2023-03-13T23:31:20.849Z,11.90
2023-03-13T23:33:48.691Z,12.40
2023-03-13T23:36:18.301Z,12.20
2023-03-13T23:41:14.054Z,12.20
2023-03-13T23:43:41.527Z,12.10
2023-03-13T23:46:18.938Z,13.30
2023-03-13T23:53:42.180Z,11.90
2023-03-13T23:56:09.811Z,11.20
2023-03-13T23:58:36.620Z,10.80
